Time;durP1;ratioP1;P1;durP2;ratioP2;P2;SDS_P1;SDS_P2;PMS_P1;PMS_P2;Temp;Humidity;BMP_temperature;BMP_pressure;BME280_temperature;BME280_humidity;BME280_pressure;Samples;Min_cycle;Max_cycle;Signal;HPM_P1;HPM_P2
2022/05/02 00:00:14;;;;;;;9.95;8.20;;;5.40;99.90;;;;;;5037811;28;20045;-72
2022/05/02 00:02:40;;;;;;;10.65;7.38;;;5.40;99.90;;;;;;5037165;28;20051;-72
2022/05/02 00:05:07;;;;;;;11.48;8.27;;;5.40;99.90;;;;;;5037396;28;20071;-71
2022/05/02 00:07:33;;;;;;;14.38;8.90;;;5.40;99.90;;;;;;5037485;28;20045;-72
2022/05/02 00:09:59;;;;;;;9.77;7.28;;;5.40;99.90;;;;;;5036697;28;20048;-72
2022/05/02 00:12:25;;;;;;;13.95;8.48;;;5.30;99.90;;;;;;5037104;28;20061;-72
2022/05/02 00:14:50;;;;;;;13.02;8.32;;;5.20;99.90;;;;;;5025443;28;20053;-72
2022/05/02 00:17:16;;;;;;;13.00;8.95;;;5.20;99.90;;;;;;5017382;28;20038;-72
2022/05/02 00:19:42;;;;;;;10.75;8.00;;;5.20;99.90;;;;;;5017408;28;20447;-72
2022/05/02 00:22:08;;;;;;;10.20;8.18;;;5.20;99.90;;;;;;5000347;28;20462;-72
2022/05/02 00:24:34;;;;;;;10.38;8.52;;;5.20;99.90;;;;;;4999675;28;20065;-72
2022/05/02 00:26:59;;;;;;;12.48;9.02;;;5.10;99.90;;;;;;5017008;28;20053;-72
2022/05/02 00:29:25;;;;;;;13.35;9.63;;;5.10;99.90;;;;;;5016079;28;20462;-71
2022/05/02 00:31:51;;;;;;;13.57;8.05;;;5.10;99.90;;;;;;5017159;28;20395;-73
2022/05/02 00:34:16;;;;;;;12.55;8.88;;;5.00;99.90;;;;;;5017215;28;20038;-72
2022/05/02 00:36:42;;;;;;;12.73;9.40;;;5.00;99.90;;;;;;5017287;28;20058;-71
2022/05/02 00:39:08;;;;;;;13.48;9.10;;;5.10;99.90;;;;;;5029856;28;20045;-71
2022/05/02 00:41:34;;;;;;;12.77;8.95;;;5.00;99.90;;;;;;5037002;28;20387;-71
2022/05/02 00:43:59;;;;;;;15.40;11.02;;;4.90;99.90;;;;;;5036440;28;20046;-72
2022/05/02 00:46:26;;;;;;;11.98;9.50;;;4.90;99.90;;;;;;5036718;28;20049;-71
2022/05/02 00:48:52;;;;;;;12.77;9.55;;;4.90;99.90;;;;;;5037040;28;20191;-71
2022/05/02 00:51:19;;;;;;;16.42;10.27;;;4.90;99.90;;;;;;5036599;28;20057;-72
2022/05/02 00:53:49;;;;;;;14.13;10.43;;;4.90;99.90;;;;;;5036314;28;20081;-72
2022/05/02 00:56:22;;;;;;;14.13;9.95;;;4.90;99.90;;;;;;5036509;28;20068;-72
2022/05/02 00:58:52;;;;;;;14.18;9.93;;;4.90;99.90;;;;;;5019632;28;20053;-72
2022/05/02 01:01:18;;;;;;;14.15;9.88;;;4.90;99.90;;;;;;5036110;28;20081;-71
2022/05/02 01:03:44;;;;;;;17.15;11.02;;;4.90;99.90;;;;;;5036392;28;20489;-72
2022/05/02 01:08:54;;;;;;;15.88;9.45;;;4.90;99.90;;;;;;5034441;28;20396;-71
2022/05/02 01:11:20;;;;;;;14.98;10.27;;;4.80;99.90;;;;;;5035954;28;20124;-71
2022/05/02 01:13:48;;;;;;;14.77;9.93;;;5.00;99.90;;;;;;5035928;28;20446;-72
2022/05/02 01:16:21;;;;;;;13.85;10.82;;;4.80;99.90;;;;;;5036461;28;20076;-72
2022/05/02 01:18:49;;;;;;;14.48;9.38;;;4.70;99.90;;;;;;5036005;28;20049;-72
2022/05/02 01:21:19;;;;;;;15.00;10.85;;;4.60;99.90;;;;;;5035825;28;20052;-71
2022/05/02 01:23:47;;;;;;;15.95;10.50;;;4.70;99.90;;;;;;5035827;28;20045;-72
2022/05/02 01:26:14;;;;;;;14.20;10.23;;;4.60;99.90;;;;;;5036075;28;20045;-72
2022/05/02 01:28:50;;;;;;;15.45;11.15;;;4.60;99.90;;;;;;5035824;28;20362;-71
2022/05/02 01:31:18;;;;;;;15.45;11.45;;;4.60;99.90;;;;;;5035898;28;20052;-71
2022/05/02 01:33:44;;;;;;;15.40;11.45;;;4.50;99.90;;;;;;5018063;28;20045;-72
2022/05/02 01:36:10;;;;;;;13.90;10.38;;;4.50;99.90;;;;;;5035659;28;20059;-72
2022/05/02 01:38:37;;;;;;;16.30;11.18;;;4.50;99.90;;;;;;5026976;28;20038;-72
2022/05/02 01:41:07;;;;;;;16.33;11.23;;;4.50;99.90;;;;;;5018796;28;20041;-71
2022/05/02 01:43:33;;;;;;;16.63;11.10;;;4.50;99.90;;;;;;5035474;28;20037;-72
2022/05/02 01:45:59;;;;;;;17.70;11.10;;;4.40;99.90;;;;;;5035595;28;20041;-72
2022/05/02 01:48:26;;;;;;;16.88;10.60;;;4.40;99.90;;;;;;5035373;28;20055;-72
2022/05/02 01:50:51;;;;;;;16.27;11.55;;;4.40;99.90;;;;;;5035227;28;20047;-72
2022/05/02 01:53:17;;;;;;;16.45;11.88;;;4.40;99.90;;;;;;5018340;28;20380;-71
2022/05/02 01:55:43;;;;;;;14.52;11.55;;;4.30;99.90;;;;;;5034981;28;20049;-72
2022/05/02 01:58:08;;;;;;;17.23;12.00;;;4.30;99.90;;;;;;5035328;28;20180;-72
2022/05/02 02:00:34;;;;;;;17.25;11.07;;;4.20;99.90;;;;;;4999589;28;20515;-72
2022/05/02 02:02:59;;;;;;;14.55;10.90;;;4.20;99.90;;;;;;5035135;28;20041;-72
2022/05/02 02:08:09;;;;;;;14.35;11.88;;;4.20;99.90;;;;;;5035266;28;20144;-71
2022/05/02 02:10:35;;;;;;;15.05;11.35;;;4.20;99.90;;;;;;5035334;28;20094;-73
2022/05/02 02:13:00;;;;;;;17.77;12.20;;;4.10;99.90;;;;;;5018328;28;20048;-71
2022/05/02 02:15:26;;;;;;;15.15;12.00;;;4.10;99.90;;;;;;5017386;28;20060;-72
2022/05/02 02:17:52;;;;;;;16.75;12.30;;;4.00;99.90;;;;;;5035308;28;20470;-72
2022/05/02 02:20:17;;;;;;;16.75;11.25;;;4.00;99.90;;;;;;5017923;28;20355;-71
2022/05/02 02:22:43;;;;;;;16.30;11.68;;;4.00;99.90;;;;;;5034950;28;20042;-71
2022/05/02 02:25:09;;;;;;;14.48;11.25;;;4.00;99.90;;;;;;5017618;28;20334;-72
2022/05/02 02:27:34;;;;;;;19.00;11.73;;;4.00;99.90;;;;;;5034387;28;20045;-73
2022/05/02 02:30:00;;;;;;;18.50;12.27;;;3.90;99.90;;;;;;5027165;28;20045;-72
2022/05/02 02:32:26;;;;;;;16.13;11.50;;;3.90;99.90;;;;;;5014891;28;20053;-72
2022/05/02 02:34:52;;;;;;;17.73;13.18;;;3.90;99.90;;;;;;5014914;28;20050;-72
2022/05/02 02:37:17;;;;;;;19.15;12.60;;;3.90;99.90;;;;;;5015251;28;20125;-72
2022/05/02 02:39:43;;;;;;;19.35;11.70;;;3.90;99.90;;;;;;5015079;28;20049;-72
2022/05/02 02:42:09;;;;;;;17.67;11.82;;;3.90;99.90;;;;;;5015244;28;20081;-72
2022/05/02 02:44:35;;;;;;;15.95;12.20;;;3.80;99.90;;;;;;5014811;28;20092;-71
2022/05/02 02:47:01;;;;;;;19.38;13.45;;;3.80;99.90;;;;;;5015135;28;20442;-72
2022/05/02 02:49:27;;;;;;;20.17;13.50;;;3.80;99.90;;;;;;5015291;28;20049;-73
2022/05/02 02:51:52;;;;;;;18.95;13.68;;;3.80;99.90;;;;;;5015258;28;20042;-72
2022/05/02 02:54:18;;;;;;;20.60;13.68;;;3.80;99.90;;;;;;5018812;28;20116;-71
2022/05/02 02:56:43;;;;;;;18.70;13.02;;;3.80;99.90;;;;;;5035123;28;20443;-71
2022/05/02 02:59:10;;;;;;;18.70;14.73;;;3.70;99.90;;;;;;5035519;28;20053;-72
2022/05/02 03:01:36;;;;;;;17.90;13.45;;;3.70;99.90;;;;;;5018865;28;20046;-72
2022/05/02 03:06:01;;;;;;;20.08;13.18;;;3.70;99.90;;;;;;5018559;28;20470;-71
2022/05/02 03:06:47;;;;;;;22.48;14.32;;;3.70;99.90;;;;;;5001503;28;20505;-72
2022/05/02 03:09:13;;;;;;;22.67;14.77;;;3.70;99.90;;;;;;5019017;28;20041;-72
2022/05/02 03:11:39;;;;;;;19.77;14.60;;;3.70;99.90;;;;;;5018860;28;20053;-71
2022/05/02 03:14:04;;;;;;;21.83;14.65;;;3.70;99.90;;;;;;5018950;28;20459;-72
2022/05/02 03:16:30;;;;;;;16.92;11.90;;;3.70;99.90;;;;;;5018809;28;20042;-71
2022/05/02 03:18:55;;;;;;;16.73;13.02;;;3.60;99.90;;;;;;5018630;28;20358;-72
2022/05/02 03:21:21;;;;;;;19.67;14.52;;;3.60;99.90;;;;;;5018584;28;20046;-72
2022/05/02 03:23:47;;;;;;;22.05;14.45;;;3.60;99.90;;;;;;5018796;28;20041;-72
2022/05/02 03:26:12;;;;;;;17.98;13.50;;;3.60;99.90;;;;;;5018451;28;20041;-72
2022/05/02 03:28:38;;;;;;;19.50;13.93;;;3.50;99.90;;;;;;5018258;28;20420;-71
2022/05/02 03:31:04;;;;;;;23.52;14.65;;;3.50;99.90;;;;;;5035986;28;20370;-70
2022/05/02 03:33:29;;;;;;;18.70;14.25;;;3.60;99.90;;;;;;5020827;28;20187;-71
2022/05/02 03:35:55;;;;;;;20.27;14.18;;;3.50;99.90;;;;;;5038153;28;20092;-72
2022/05/02 03:38:20;;;;;;;18.92;13.98;;;3.50;99.90;;;;;;5038125;28;20041;-72
2022/05/02 03:40:46;;;;;;;20.20;14.27;;;3.50;99.90;;;;;;5037853;28;20191;-72
2022/05/02 03:43:12;;;;;;;22.60;14.75;;;3.50;99.90;;;;;;5037759;28;20052;-71
2022/05/02 03:45:37;;;;;;;18.10;13.65;;;3.50;99.90;;;;;;5038169;28;20049;-72
2022/05/02 03:48:03;;;;;;;22.73;13.95;;;3.50;99.90;;;;;;5037735;28;20045;-71
2022/05/02 03:50:29;;;;;;;21.80;14.52;;;3.50;99.90;;;;;;5037806;28;20038;-72
2022/05/02 03:52:55;;;;;;;21.40;14.52;;;3.40;99.90;;;;;;5037860;28;20481;-72
2022/05/02 03:55:20;;;;;;;22.30;15.23;;;3.40;99.90;;;;;;5019653;28;20065;-72
2022/05/02 03:57:46;;;;;;;19.80;14.90;;;3.40;99.90;;;;;;5021024;28;20061;-72
2022/05/02 04:00:13;;;;;;;19.02;15.00;;;3.40;99.90;;;;;;5029170;28;20085;-72
2022/05/02 04:02:39;;;;;;;20.60;14.77;;;3.40;99.90;;;;;;5026872;28;20049;-72
2022/05/02 04:05:05;;;;;;;21.65;15.40;;;3.40;99.90;;;;;;5017582;28;20046;-72
2022/05/02 04:07:30;;;;;;;19.13;14.65;;;3.40;99.90;;;;;;5017881;28;20053;-71
2022/05/02 04:09:56;;;;;;;21.63;15.80;;;3.40;99.90;;;;;;5017407;28;20107;-71
2022/05/02 04:12:21;;;;;;;24.45;16.15;;;3.50;99.90;;;;;;5017803;28;20042;-71
2022/05/02 04:14:47;;;;;;;19.70;14.35;;;3.50;99.90;;;;;;5017679;28;20108;-72
2022/05/02 04:17:12;;;;;;;18.98;14.98;;;3.50;99.90;;;;;;5017745;28;20050;-71
2022/05/02 04:19:38;;;;;;;19.15;15.50;;;3.50;99.90;;;;;;5017368;28;20041;-72
2022/05/02 04:22:04;;;;;;;24.75;15.82;;;3.50;99.90;;;;;;5017435;28;20050;-72
2022/05/02 04:24:30;;;;;;;21.05;15.52;;;3.50;99.90;;;;;;5000053;28;20058;-72
2022/05/02 04:26:57;;;;;;;20.65;14.50;;;3.50;99.90;;;;;;5016815;28;20481;-72
2022/05/02 04:29:23;;;;;;;20.88;14.82;;;3.50;99.90;;;;;;5023063;28;20049;-71
2022/05/02 04:31:49;;;;;;;23.77;14.90;;;3.50;99.90;;;;;;5037069;28;20053;-72
2022/05/02 04:34:14;;;;;;;19.00;15.15;;;3.50;99.90;;;;;;5037009;28;20041;-71
2022/05/02 04:36:40;;;;;;;24.10;15.95;;;3.60;99.90;;;;;;5037168;28;20088;-71
2022/05/02 04:39:05;;;;;;;20.98;15.30;;;3.70;99.90;;;;;;5036146;28;20369;-72
2022/05/02 04:41:31;;;;;;;23.98;17.08;;;3.60;99.90;;;;;;5036622;28;20454;-72
2022/05/02 04:43:57;;;;;;;20.85;15.70;;;3.70;99.90;;;;;;5036670;28;20425;-72
2022/05/02 04:46:23;;;;;;;21.50;15.77;;;3.80;99.90;;;;;;5036754;28;20456;-72
2022/05/02 04:48:48;;;;;;;22.92;15.95;;;3.80;99.90;;;;;;5036638;28;20088;-71
2022/05/02 04:51:14;;;;;;;23.15;14.95;;;3.90;99.90;;;;;;5036641;28;20132;-72
2022/05/02 04:53:40;;;;;;;25.50;16.85;;;3.90;99.90;;;;;;5036488;28;20045;-71
2022/05/02 04:56:06;;;;;;;20.27;16.15;;;4.00;99.90;;;;;;5036585;28;20060;-71
2022/05/02 04:58:31;;;;;;;24.25;15.98;;;4.00;99.90;;;;;;5036569;28;20045;-71
2022/05/02 05:00:57;;;;;;;28.02;18.13;;;4.10;99.90;;;;;;5017705;28;20137;-72
2022/05/02 05:03:22;;;;;;;22.52;16.55;;;4.10;99.90;;;;;;5016592;28;20416;-72
2022/05/02 05:05:49;;;;;;;22.77;15.73;;;4.20;99.90;;;;;;4999466;28;20046;-71
2022/05/02 05:08:15;;;;;;;21.25;15.95;;;4.30;99.90;;;;;;4999217;28;20054;-72
2022/05/02 05:11:05;;;;;;;23.80;17.35;;;4.40;99.90;;;;;;5016553;28;20053;-71
2022/05/02 05:17:20;;;;;;;24.77;16.67;;;4.60;99.90;;;;;;5015986;28;20108;-71
2022/05/02 05:20:13;;;;;;;22.80;17.05;;;4.70;99.90;;;;;;5016338;28;20041;-72
2022/05/02 05:22:55;;;;;;;24.48;17.10;;;4.90;99.90;;;;;;5016292;28;20060;-71
2022/05/02 05:25:42;;;;;;;23.20;18.02;;;5.20;99.90;;;;;;4998908;28;20103;-72
2022/05/02 05:28:41;;;;;;;20.92;16.63;;;5.50;99.90;;;;;;5016276;28;20080;-72
2022/05/02 05:31:29;;;;;;;22.80;16.02;;;5.70;99.90;;;;;;5018829;28;20398;-72
2022/05/02 05:34:03;;;;;;;20.63;15.85;;;6.20;99.90;;;;;;5015445;28;20443;-72
2022/05/02 05:36:38;;;;;;;22.25;16.35;;;6.50;99.90;;;;;;5015857;28;20037;-72
2022/05/02 05:39:05;;;;;;;26.08;17.40;;;7.00;99.90;;;;;;5016154;28;20439;-72
2022/05/02 05:42:16;;;;;;;23.08;18.20;;;8.30;99.90;;;;;;5015880;28;20113;-73
2022/05/02 05:45:00;;;;;;;17.77;14.32;;;9.70;99.90;;;;;;4993063;28;20065;-73
2022/05/02 05:47:51;;;;;;;17.25;13.52;;;11.40;99.90;;;;;;5015809;28;20057;-72
2022/05/02 05:50:25;;;;;;;15.18;11.05;;;12.50;99.90;;;;;;5015452;28;20513;-72
2022/05/02 05:53:14;;;;;;;16.30;10.65;;;13.60;99.90;;;;;;5015414;28;20046;-73
2022/05/02 05:56:02;;;;;;;12.90;9.43;;;14.40;99.90;;;;;;5022769;28;20141;-73
2022/05/02 05:58:46;;;;;;;11.48;9.18;;;15.30;99.90;;;;;;5021666;28;20057;-73
2022/05/02 06:01:23;;;;;;;12.48;8.57;;;15.70;99.90;;;;;;4996160;28;20076;-73
2022/05/02 06:04:07;;;;;;;14.82;8.13;;;16.00;99.90;;;;;;4995934;28;20042;-72
2022/05/02 06:06:34;;;;;;;10.32;8.10;;;16.60;99.90;;;;;;4996030;28;20057;-72
2022/05/02 06:09:01;;;;;;;11.95;8.73;;;16.50;99.90;;;;;;4995784;28;20050;-73
2022/05/02 06:11:27;;;;;;;10.85;8.20;;;16.90;99.90;;;;;;4996152;28;20078;-73
2022/05/02 06:13:55;;;;;;;12.15;8.68;;;16.80;99.90;;;;;;4995989;28;20054;-73
2022/05/02 06:19:13;;;;;;;9.27;7.78;;;17.60;99.90;;;;;;4995677;28;20137;-74
2022/05/02 06:21:46;;;;;;;9.82;7.97;;;17.60;99.90;;;;;;4995542;28;20422;-73
2022/05/02 06:24:13;;;;;;;12.07;7.28;;;17.90;99.90;;;;;;4995875;28;20057;-73
2022/05/02 06:26:40;;;;;;;9.90;8.70;;;18.60;97.70;;;;;;4995270;28;20387;-73
2022/05/02 06:29:08;;;;;;;9.40;7.13;;;18.80;99.70;;;;;;5005098;28;20037;-73
2022/05/02 06:31:40;;;;;;;11.43;7.57;;;19.10;98.90;;;;;;5035064;28;20384;-73
2022/05/02 06:34:07;;;;;;;9.40;7.30;;;19.30;97.80;;;;;;5034742;28;20131;-73
2022/05/02 06:36:42;;;;;;;12.90;8.00;;;19.10;97.00;;;;;;5034927;28;20526;-73
2022/05/02 06:39:22;;;;;;;10.00;7.32;;;19.30;94.10;;;;;;5017404;28;20084;-73
2022/05/02 06:42:18;;;;;;;10.98;7.57;;;19.40;94.30;;;;;;5034814;28;20073;-73
2022/05/02 06:45:02;;;;;;;13.40;8.40;;;19.30;95.20;;;;;;4984292;28;20241;-71
2022/05/02 06:48:00;;;;;;;10.25;7.10;;;19.40;93.70;;;;;;5017603;28;20084;-74
2022/05/02 06:50:31;;;;;;;11.23;7.18;;;19.70;93.40;;;;;;4994659;28;20060;-71
2022/05/02 06:53:24;;;;;;;9.77;6.80;;;18.50;93.80;;;;;;5034475;28;20045;-71
2022/05/02 06:56:32;;;;;;;11.02;7.38;;;17.40;95.20;;;;;;5035015;28;20484;-71
2022/05/02 06:59:27;;;;;;;9.48;7.40;;;16.60;98.90;;;;;;5028052;28;20052;-71
2022/05/02 07:02:12;;;;;;;9.32;7.78;;;15.80;99.90;;;;;;4961609;28;20083;-71
2022/05/02 07:04:55;;;;;;;11.63;7.60;;;15.50;99.90;;;;;;4984018;28;20474;-70
2022/05/02 07:07:35;;;;;;;10.90;6.60;;;16.00;99.90;;;;;;5014670;28;20378;-71
2022/05/02 07:10:20;;;;;;;9.07;6.80;;;16.70;99.10;;;;;;5014946;28;20292;-71
2022/05/02 07:13:11;;;;;;;8.43;6.45;;;17.20;97.70;;;;;;5014936;28;20107;-71
2022/05/02 07:15:58;;;;;;;11.13;6.63;;;17.70;96.20;;;;;;5014746;28;20168;-74
2022/05/02 07:18:27;;;;;;;11.55;6.05;;;17.90;95.60;;;;;;5007069;28;20137;-74
2022/05/02 07:21:05;;;;;;;9.02;5.97;;;18.20;96.40;;;;;;5014651;28;20094;-74
2022/05/02 07:23:49;;;;;;;9.65;6.75;;;18.80;93.10;;;;;;5014825;28;20489;-74
2022/05/02 07:26:18;;;;;;;9.75;6.85;;;19.00;92.80;;;;;;5014633;28;20103;-73
2022/05/02 07:28:49;;;;;;;10.45;6.85;;;19.10;93.90;;;;;;4998112;28;20121;-74
2022/05/02 07:31:20;;;;;;;10.70;6.85;;;19.20;92.80;;;;;;5017038;28;20049;-73
2022/05/02 07:33:48;;;;;;;12.10;7.50;;;19.20;92.10;;;;;;5034231;28;20045;-71
2022/05/02 07:36:17;;;;;;;7.90;6.00;;;19.30;92.20;;;;;;5034631;28;20049;-72
2022/05/02 07:38:46;;;;;;;10.50;6.80;;;19.60;92.40;;;;;;5035323;28;20344;-71
2022/05/02 07:41:23;;;;;;;7.50;6.60;;;20.10;91.30;;;;;;5020608;28;20442;-71
2022/05/02 07:43:52;;;;;;;9.63;5.60;;;20.40;91.30;;;;;;5037812;28;20063;-74
2022/05/02 07:46:25;;;;;;;10.52;6.13;;;20.60;89.90;;;;;;5037783;28;20167;-71
2022/05/02 07:48:52;;;;;;;7.47;5.25;;;20.60;81.20;;;;;;5037752;28;20045;-72
2022/05/02 07:51:20;;;;;;;8.40;5.40;;;20.20;83.90;;;;;;5037664;28;20146;-72
2022/05/02 07:53:46;;;;;;;10.00;5.43;;;20.20;82.80;;;;;;5037586;28;20045;-72
2022/05/02 07:56:13;;;;;;;8.55;5.80;;;19.80;81.70;;;;;;5019764;28;20434;-72
2022/05/02 07:58:41;;;;;;;10.13;5.05;;;20.10;80.70;;;;;;5031934;28;20375;-72
2022/05/02 08:01:07;;;;;;;9.48;5.47;;;20.20;81.10;;;;;;5027235;28;20056;-72
2022/05/02 08:03:33;;;;;;;7.88;5.65;;;20.40;82.20;;;;;;5037527;28;20391;-72
2022/05/02 08:06:20;;;;;;;9.98;5.40;;;20.50;82.00;;;;;;5037489;28;20051;-72
2022/05/02 08:09:10;;;;;;;8.63;5.68;;;20.40;76.30;;;;;;5037363;28;20056;-72
2022/05/02 08:11:44;;;;;;;7.50;5.40;;;20.20;75.20;;;;;;5037387;28;20037;-72
2022/05/02 08:14:22;;;;;;;13.13;6.10;;;20.10;78.30;;;;;;5037914;28;20037;-72
2022/05/02 08:17:02;;;;;;;8.05;5.82;;;20.30;77.60;;;;;;5037186;28;20041;-71
2022/05/02 08:19:55;;;;;;;9.57;5.53;;;20.30;76.50;;;;;;5036838;28;20049;-72
2022/05/02 08:28:55;;;;;;;8.10;5.65;;;20.70;72.60;;;;;;5031429;28;20053;-72
2022/05/02 08:31:34;;;;;;;9.55;6.03;;;20.30;72.40;;;;;;5019868;28;20332;-72
2022/05/02 08:34:15;;;;;;;10.80;6.03;;;20.10;75.90;;;;;;5017281;28;20068;-72
2022/05/02 08:36:59;;;;;;;9.60;5.65;;;20.10;77.70;;;;;;5017380;28;20414;-72
2022/05/02 08:39:34;;;;;;;8.82;4.97;;;20.10;75.70;;;;;;5009266;28;20057;-72
2022/05/02 08:42:18;;;;;;;9.02;5.80;;;20.00;77.00;;;;;;5017033;28;20090;-72
2022/05/02 08:45:03;;;;;;;12.48;5.88;;;20.00;76.40;;;;;;5016980;28;20057;-71
2022/05/02 08:47:53;;;;;;;9.40;5.97;;;20.00;77.60;;;;;;5016651;28;20050;-71
2022/05/02 08:50:25;;;;;;;7.65;5.28;;;20.20;78.90;;;;;;5015906;28;20046;-72
2022/05/02 08:53:35;;;;;;;10.70;5.93;;;20.50;79.10;;;;;;5035085;28;20048;-71
2022/05/02 08:56:19;;;;;;;8.48;5.75;;;20.40;72.90;;;;;;5036437;28;20111;-72
2022/05/02 08:58:52;;;;;;;7.97;6.55;;;20.20;73.80;;;;;;5036700;28;20045;-71
2022/05/02 09:01:23;;;;;;;8.02;6.25;;;19.60;72.90;;;;;;5036214;28;20038;-71
2022/05/02 09:04:37;;;;;;;9.07;5.57;;;19.10;74.80;;;;;;5019047;28;20115;-72
2022/05/02 09:07:28;;;;;;;8.00;5.93;;;18.70;74.90;;;;;;5036548;28;20119;-72
2022/05/02 09:10:10;;;;;;;10.88;6.50;;;18.20;81.00;;;;;;5018892;28;20057;-72
2022/05/02 09:13:01;;;;;;;9.93;6.97;;;17.70;82.00;;;;;;5036038;28;20095;-75
2022/05/02 09:15:40;;;;;;;8.00;6.40;;;17.40;81.40;;;;;;5036097;28;20146;-71
2022/05/02 09:18:21;;;;;;;10.00;6.25;;;17.10;81.20;;;;;;5036047;28;20049;-70
2022/05/02 09:21:31;;;;;;;8.20;5.78;;;16.80;84.00;;;;;;5033557;28;20049;-71
2022/05/02 09:24:24;;;;;;;12.10;6.70;;;16.90;87.40;;;;;;5016331;28;20057;-71
2022/05/02 09:27:04;;;;;;;13.48;6.05;;;17.00;87.60;;;;;;5016094;28;20046;-71
2022/05/02 09:29:53;;;;;;;9.90;6.50;;;17.20;85.80;;;;;;5015694;28;20473;-71
2022/05/02 09:32:47;;;;;;;11.43;6.63;;;17.50;86.90;;;;;;5015881;28;20053;-72
2022/05/02 09:35:31;;;;;;;11.70;7.38;;;17.70;84.00;;;;;;5015835;28;20046;-72
2022/05/02 09:38:24;;;;;;;11.15;6.00;;;17.80;85.40;;;;;;4998738;28;20049;-72
2022/05/02 09:40:58;;;;;;;9.55;7.43;;;18.40;82.40;;;;;;5015844;28;20146;-72
2022/05/02 09:50:14;;;;;;;9.63;6.00;;;17.80;76.70;;;;;;4996700;28;20054;-73
2022/05/02 09:52:59;;;;;;;9.48;6.43;;;17.50;79.40;;;;;;5017886;28;20081;-71
2022/05/02 09:58:50;;;;;;;;;;;16.90;81.50;;;;;;5035722;28;20049;-71
2022/05/02 10:01:26;;;;;;;10.73;6.60;;;16.50;83.40;;;;;;5035047;28;19925;-71
2022/05/02 10:04:01;;;;;;;8.73;6.97;;;16.60;85.60;;;;;;5035378;28;20048;-72
2022/05/02 10:06:38;;;;;;;8.85;6.90;;;16.80;86.20;;;;;;5035297;28;20347;-71
2022/05/02 10:09:08;;;;;;;8.10;5.38;;;16.70;83.70;;;;;;5035506;28;20045;-72
2022/05/02 10:12:12;;;;;;;13.10;7.03;;;16.90;87.50;;;;;;5035154;28;20057;-71
2022/05/02 10:14:38;;;;;;;8.70;6.72;;;17.20;89.10;;;;;;4985169;28;20122;-72
2022/05/02 10:17:16;;;;;;;10.43;7.13;;;17.30;87.90;;;;;;5017593;28;20057;-72
2022/05/02 10:20:10;;;;;;;14.02;6.70;;;17.60;84.90;;;;;;5034974;28;20041;-72
2022/05/02 10:22:50;;;;;;;10.05;7.45;;;17.40;81.10;;;;;;5034701;28;20041;-72
2022/05/02 10:25:24;;;;;;;8.55;5.70;;;17.30;85.40;;;;;;5035129;28;20476;-72
2022/05/02 10:28:34;;;;;;;9.50;6.68;;;17.40;79.90;;;;;;5034479;28;20046;-72
2022/05/02 10:31:11;;;;;;;9.25;6.65;;;17.30;82.40;;;;;;5034873;28;20128;-72
2022/05/02 10:33:44;;;;;;;12.57;7.05;;;17.20;83.20;;;;;;5032624;28;20053;-72
2022/05/02 10:36:12;;;;;;;11.25;7.47;;;16.90;83.20;;;;;;5034756;28;20045;-71
2022/05/02 10:38:52;;;;;;;9.77;6.43;;;16.80;84.40;;;;;;5034656;28;20054;-71
2022/05/02 10:41:40;;;;;;;11.40;6.68;;;16.60;84.60;;;;;;5034921;28;20351;-71
2022/05/02 10:44:06;;;;;;;9.30;6.75;;;16.70;85.70;;;;;;5018810;28;20133;-72
2022/05/02 10:46:33;;;;;;;8.32;6.70;;;16.90;85.40;;;;;;5017194;28;20450;-71
2022/05/02 10:49:37;;;;;;;9.23;6.32;;;17.00;83.80;;;;;;5034683;28;20056;-71
2022/05/02 10:52:12;;;;;;;10.45;6.30;;;17.20;81.10;;;;;;5034261;28;20473;-71
2022/05/02 10:54:50;;;;;;;7.15;6.15;;;17.40;81.10;;;;;;5034489;28;20052;-71
2022/05/02 10:57:38;;;;;;;9.27;6.57;;;17.50;79.10;;;;;;5014562;28;20096;-71
2022/05/02 11:00:07;;;;;;;11.45;6.60;;;17.30;78.80;;;;;;5015131;28;20134;-72
2022/05/02 11:02:49;;;;;;;8.20;6.03;;;17.20;76.70;;;;;;5014669;28;20049;-72
2022/05/02 11:05:17;;;;;;;11.73;6.30;;;17.10;80.60;;;;;;4997175;28;20359;-71
2022/05/02 11:08:09;;;;;;;8.18;5.97;;;17.30;80.80;;;;;;4982129;28;20053;-71
2022/05/02 11:10:41;;;;;;;11.52;6.25;;;17.40;83.70;;;;;;5014990;28;20058;-72
2022/05/02 11:13:11;;;;;;;10.98;7.07;;;17.50;81.60;;;;;;5015367;28;20120;-71
2022/05/02 11:15:36;;;;;;;7.88;6.35;;;17.60;76.60;;;;;;5018350;28;20042;-71
2022/05/02 11:20:41;;;;;;;7.80;6.70;;;17.60;79.70;;;;;;5000893;28;20378;-71
2022/05/02 11:21:14;;;;;;;10.18;5.63;;;17.40;78.80;;;;;;5017773;28;20046;-71
2022/05/02 11:24:16;;;;;;;9.98;5.72;;;17.40;76.80;;;;;;5018642;28;20070;-71
2022/05/02 11:26:47;;;;;;;9.73;6.15;;;17.20;76.40;;;;;;5018310;28;20045;-72
2022/05/02 11:29:38;;;;;;;10.98;6.78;;;17.00;75.40;;;;;;5000945;28;20054;-71
2022/05/02 11:32:09;;;;;;;10.07;6.32;;;16.80;77.40;;;;;;5018376;28;20054;-71
2022/05/02 11:34:44;;;;;;;7.82;6.22;;;16.90;78.40;;;;;;5018148;28;20049;-72
2022/05/02 11:37:21;;;;;;;7.68;6.07;;;17.10;78.90;;;;;;5018162;28;20037;-71
2022/05/02 11:40:00;;;;;;;8.38;5.95;;;17.30;79.30;;;;;;5018199;28;20046;-71
2022/05/02 11:42:28;;;;;;;12.18;5.85;;;17.40;77.90;;;;;;5018167;28;20041;-71
2022/05/02 11:45:05;;;;;;;8.13;6.28;;;17.60;76.40;;;;;;5018199;28;20061;-71
2022/05/02 11:47:31;;;;;;;10.38;6.75;;;17.50;70.50;;;;;;5000952;28;20050;-71
2022/05/02 11:50:10;;;;;;;9.43;5.07;;;17.40;71.70;;;;;;5017906;28;20046;-72
2022/05/02 11:52:42;;;;;;;9.05;4.80;;;17.10;69.70;;;;;;4999930;28;20347;-71
2022/05/02 11:55:10;;;;;;;7.15;5.38;;;17.20;71.90;;;;;;5019140;28;20069;-71
2022/05/02 11:57:52;;;;;;;8.80;6.57;;;17.20;75.00;;;;;;4986908;28;20132;-71
2022/05/02 12:00:18;;;;;;;8.13;5.63;;;17.40;72.70;;;;;;5020455;28;20049;-71
2022/05/02 12:03:02;;;;;;;7.70;6.20;;;17.50;77.10;;;;;;5020121;28;20064;-71
2022/05/02 12:05:35;;;;;;;5.93;4.25;;;17.80;76.00;;;;;;5037342;28;20131;-71
2022/05/02 12:08:06;;;;;;;8.80;4.55;;;18.00;70.10;;;;;;5037727;28;20049;-71
2022/05/02 12:11:11;;;;;;;12.93;4.72;;;18.20;71.00;;;;;;5037254;28;20351;-72
2022/05/02 12:13:47;;;;;;;7.43;5.07;;;18.20;66.40;;;;;;5037354;28;20045;-71
2022/05/02 12:16:17;;;;;;;7.75;5.35;;;18.50;69.50;;;;;;5037193;28;20355;-72
2022/05/02 12:18:50;;;;;;;8.93;5.60;;;18.60;68.20;;;;;;5037395;28;20042;-72
2022/05/02 12:21:21;;;;;;;;;;;18.50;66.10;;;;;;5037617;28;20382;-71
2022/05/02 12:23:48;;;;;;;7.32;5.45;;;18.50;66.90;;;;;;5037259;28;20337;-71
2022/05/02 12:26:22;;;;;;;9.13;5.28;;;18.50;68.30;;;;;;5007375;28;20056;-71
2022/05/02 12:28:53;;;;;;;7.90;5.35;;;18.40;66.40;;;;;;5016364;28;20049;-71
2022/05/02 12:31:23;;;;;;;6.93;5.30;;;18.40;68.70;;;;;;5017077;28;20125;-71
2022/05/02 12:34:14;;;;;;;9.07;5.57;;;18.10;66.30;;;;;;5017064;28;20038;-71
2022/05/02 12:36:45;;;;;;;8.20;4.78;;;18.30;64.60;;;;;;4999064;28;20065;-71
2022/05/02 12:39:18;;;;;;;6.97;5.28;;;18.10;64.00;;;;;;5017229;28;20046;-71
2022/05/02 12:41:49;;;;;;;7.72;5.18;;;17.80;66.60;;;;;;5016829;28;20076;-71
2022/05/02 12:44:16;;;;;;;9.57;5.53;;;17.70;67.00;;;;;;5016958;28;20132;-71
2022/05/02 12:46:45;;;;;;;7.40;4.78;;;17.80;67.40;;;;;;5017017;28;20455;-71
2022/05/02 12:49:26;;;;;;;7.00;4.72;;;17.90;67.80;;;;;;4999270;28;20045;-71
2022/05/02 12:51:53;;;;;;;6.28;4.10;;;17.90;68.30;;;;;;4999260;28;20081;-71
2022/05/02 12:54:21;;;;;;;7.20;4.75;;;18.00;67.30;;;;;;5016671;28;20362;-72
2022/05/02 12:56:48;;;;;;;8.57;5.40;;;18.10;69.00;;;;;;5033119;28;20057;-71
2022/05/02 13:02:00;;;;;;;8.05;4.88;;;18.20;68.60;;;;;;5016657;28;20455;-71
2022/05/02 13:04:28;;;;;;;8.23;5.53;;;18.20;70.10;;;;;;5016433;28;20057;-71
2022/05/02 13:06:58;;;;;;;8.73;5.68;;;18.00;70.10;;;;;;5016435;28;20231;-71
2022/05/02 13:09:36;;;;;;;7.95;6.20;;;18.00;70.40;;;;;;5016748;28;20406;-71
2022/05/02 13:12:10;;;;;;;6.90;5.22;;;17.90;69.90;;;;;;5016598;28;20046;-72
2022/05/02 13:14:36;;;;;;;;;;;17.90;73.00;;;;;;5016626;28;20050;-71
2022/05/02 13:17:09;;;;;;;6.53;4.80;;;18.00;72.10;;;;;;5015765;28;19922;-72
2022/05/02 13:19:37;;;;;;;7.78;5.22;;;18.20;73.10;;;;;;5016534;28;20344;-71
2022/05/02 13:22:04;;;;;;;8.20;5.28;;;18.30;71.90;;;;;;5016238;28;20129;-71
2022/05/02 13:24:30;;;;;;;7.55;5.13;;;18.10;71.40;;;;;;5016628;28;20038;-72
2022/05/02 13:27:11;;;;;;;6.82;4.90;;;18.00;71.10;;;;;;5023472;28;20046;-72
2022/05/02 13:29:52;;;;;;;6.28;4.63;;;17.90;71.70;;;;;;5015724;28;20042;-72
2022/05/02 13:32:25;;;;;;;7.50;4.45;;;17.70;73.10;;;;;;5015850;28;20061;-71
2022/05/02 13:35:10;;;;;;;7.75;5.18;;;17.80;72.80;;;;;;4965217;28;20058;-72
2022/05/02 13:37:49;;;;;;;7.97;4.97;;;17.80;72.10;;;;;;5015466;28;20478;-72
2022/05/02 13:40:18;;;;;;;9.30;5.00;;;18.00;74.20;;;;;;4998820;28;20057;-72
2022/05/02 13:42:55;;;;;;;7.03;5.10;;;18.10;73.30;;;;;;5015822;28;20069;-71
2022/05/02 13:45:49;;;;;;;9.07;5.22;;;18.00;73.30;;;;;;5015891;28;20053;-72